Time;durP1;ratioP1;P1;durP2;ratioP2;P2;SDS_P1;SDS_P2;PMS_P1;PMS_P2;Temp;Humidity;BMP_temperature;BMP_pressure;BME280_temperature;BME280_humidity;BME280_pressure;Samples;Min_cycle;Max_cycle;Signal;HPM_P1;HPM_P2
2023/05/16 00:00:37;;;;;;;2.00;1.90;;;15.20;99.90;;;;;;5053526;28;20212;-63
2023/05/16 00:03:05;;;;;;;1.65;1.55;;;15.20;99.90;;;;;;5053270;28;20322;-63
2023/05/16 00:05:32;;;;;;;3.10;2.90;;;15.10;99.90;;;;;;5053994;28;20285;-63
2023/05/16 00:07:58;;;;;;;2.22;2.13;;;15.00;99.90;;;;;;5054251;28;20224;-63
2023/05/16 00:10:27;;;;;;;1.58;1.58;;;15.10;99.90;;;;;;5053776;28;20208;-64
2023/05/16 00:12:55;;;;;;;2.00;1.90;;;15.20;99.90;;;;;;5053772;28;20232;-63
2023/05/16 00:15:22;;;;;;;2.00;1.90;;;15.20;99.90;;;;;;5054088;28;20208;-64
2023/05/16 00:17:49;;;;;;;1.63;1.60;;;15.20;99.90;;;;;;5053564;28;20215;-64
2023/05/16 00:20:16;;;;;;;1.60;1.60;;;15.00;99.90;;;;;;5055157;28;20295;-63
2023/05/16 00:22:43;;;;;;;1.65;1.55;;;15.00;99.90;;;;;;5054025;28;20243;-63
2023/05/16 00:25:09;;;;;;;2.20;2.10;;;15.00;99.90;;;;;;5053712;28;20207;-63
2023/05/16 00:27:38;;;;;;;1.95;1.85;;;15.00;99.90;;;;;;5053649;28;20256;-63
2023/05/16 00:30:06;;;;;;;1.50;1.50;;;15.00;99.90;;;;;;5052220;28;20575;-62
2023/05/16 00:32:33;;;;;;;1.95;1.85;;;15.10;99.90;;;;;;5052367;28;20228;-63
2023/05/16 00:35:00;;;;;;;1.70;1.70;;;15.10;99.90;;;;;;5052985;28;20579;-62
2023/05/16 00:37:27;;;;;;;1.75;1.65;;;15.00;99.90;;;;;;5056927;28;20547;-62
2023/05/16 00:39:53;;;;;;;1.98;1.80;;;15.00;99.90;;;;;;5051721;28;20253;-64
2023/05/16 00:42:20;;;;;;;1.92;1.83;;;15.00;99.90;;;;;;5052282;28;20608;-63
2023/05/16 00:44:49;;;;;;;1.85;1.75;;;15.00;99.90;;;;;;5052120;28;20706;-63
2023/05/16 00:47:16;;;;;;;1.77;1.67;;;15.00;99.90;;;;;;5052493;28;20231;-64
2023/05/16 00:49:43;;;;;;;2.00;1.83;;;15.00;99.90;;;;;;5051625;28;20680;-62
2023/05/16 00:52:10;;;;;;;1.90;1.80;;;15.00;99.90;;;;;;5052048;28;20224;-64
2023/05/16 00:54:37;;;;;;;1.70;1.60;;;15.00;99.90;;;;;;5052078;28;20218;-64
2023/05/16 00:57:05;;;;;;;1.83;1.73;;;15.00;99.90;;;;;;5051734;28;20200;-62
2023/05/16 00:59:33;;;;;;;2.17;2.08;;;15.10;99.90;;;;;;5051223;28;20222;-64
2023/05/16 01:02:02;;;;;;;2.03;1.90;;;15.00;99.90;;;;;;5051938;28;20210;-62
2023/05/16 01:04:30;;;;;;;1.80;1.70;;;15.00;99.90;;;;;;5052263;28;20210;-63
2023/05/16 01:06:58;;;;;;;1.73;1.73;;;15.00;99.90;;;;;;5052130;28;20237;-61
2023/05/16 01:09:25;;;;;;;2.10;2.00;;;15.00;99.90;;;;;;5051014;28;21037;-63
2023/05/16 01:11:56;;;;;;;1.83;1.73;;;15.00;99.90;;;;;;5051754;28;20586;-63
2023/05/16 01:14:30;;;;;;;1.90;1.80;;;15.00;99.90;;;;;;5051859;28;20226;-63
2023/05/16 01:17:05;;;;;;;2.13;2.03;;;15.00;99.90;;;;;;5051820;28;20213;-64
2023/05/16 01:19:51;;;;;;;2.17;2.08;;;14.90;99.90;;;;;;5050915;28;20257;-63
2023/05/16 01:22:30;;;;;;;2.20;2.10;;;14.80;99.90;;;;;;5051620;28;20243;-62
2023/05/16 01:25:06;;;;;;;2.22;2.13;;;14.60;99.90;;;;;;5051779;28;20235;-63
2023/05/16 01:27:35;;;;;;;2.50;2.40;;;14.60;99.90;;;;;;5051678;28;20231;-64
2023/05/16 01:30:14;;;;;;;2.37;2.27;;;14.50;99.90;;;;;;5050625;28;20212;-62
2023/05/16 01:32:40;;;;;;;2.42;2.30;;;14.50;99.90;;;;;;5051264;28;20231;-64
2023/05/16 01:35:10;;;;;;;2.10;2.00;;;14.50;99.90;;;;;;5051480;28;20210;-61
2023/05/16 01:37:44;;;;;;;2.30;2.20;;;14.40;99.90;;;;;;5051719;28;20285;-62
2023/05/16 01:40:16;;;;;;;2.40;2.30;;;14.50;99.90;;;;;;5050742;28;20573;-63
2023/05/16 01:42:49;;;;;;;2.40;2.30;;;14.50;99.90;;;;;;5051140;28;20706;-62
2023/05/16 01:45:21;;;;;;;1.98;1.88;;;14.50;99.90;;;;;;5051314;28;20208;-62
2023/05/16 01:47:54;;;;;;;2.55;2.45;;;14.50;99.90;;;;;;5050312;28;20224;-62
2023/05/16 01:50:24;;;;;;;2.63;2.53;;;14.40;99.90;;;;;;5050559;28;20214;-62
2023/05/16 01:52:56;;;;;;;2.40;2.30;;;14.30;99.90;;;;;;5051320;28;20238;-62
2023/05/16 01:55:29;;;;;;;2.53;2.42;;;14.30;99.90;;;;;;5050930;28;20203;-64
2023/05/16 01:57:59;;;;;;;2.50;2.40;;;14.40;99.90;;;;;;5045703;28;20239;-62
2023/05/16 02:00:26;;;;;;;2.55;2.45;;;14.40;99.90;;;;;;5049969;28;20576;-62
2023/05/16 02:02:53;;;;;;;2.33;2.22;;;14.30;99.90;;;;;;5050448;28;20749;-64
2023/05/16 02:05:19;;;;;;;2.45;2.35;;;14.30;99.90;;;;;;5050896;28;20200;-63
2023/05/16 02:07:46;;;;;;;2.35;2.25;;;14.30;99.90;;;;;;5051262;28;20223;-62
2023/05/16 02:10:13;;;;;;;3.20;3.00;;;14.30;99.90;;;;;;5050850;28;20272;-64
2023/05/16 02:12:40;;;;;;;2.28;2.17;;;14.40;99.90;;;;;;5063374;28;20235;-63
2023/05/16 02:15:09;;;;;;;2.70;2.60;;;14.40;99.90;;;;;;5052799;28;20208;-64
2023/05/16 02:17:36;;;;;;;2.38;2.28;;;14.40;99.90;;;;;;5051094;28;20230;-63
2023/05/16 02:20:05;;;;;;;3.75;2.72;;;14.40;99.90;;;;;;5050102;28;20230;-63
2023/05/16 02:22:33;;;;;;;2.70;2.60;;;14.40;99.90;;;;;;5051010;28;20227;-63
2023/05/16 02:25:02;;;;;;;2.13;2.03;;;14.40;99.90;;;;;;5050599;28;20261;-63
2023/05/16 02:27:28;;;;;;;2.55;2.45;;;14.30;99.90;;;;;;5067166;28;20318;-63
2023/05/16 02:29:55;;;;;;;2.70;2.60;;;14.30;99.90;;;;;;5070112;28;20311;-67
2023/05/16 02:32:25;;;;;;;2.50;2.40;;;14.30;99.90;;;;;;5070537;28;20709;-62
2023/05/16 02:34:52;;;;;;;2.42;2.33;;;14.20;99.90;;;;;;5070644;28;20569;-62
2023/05/16 02:37:18;;;;;;;2.58;2.47;;;14.20;99.90;;;;;;5071214;28;20207;-63
2023/05/16 02:39:45;;;;;;;2.30;2.20;;;14.20;99.90;;;;;;5070935;28;20650;-62
2023/05/16 02:42:13;;;;;;;2.30;2.20;;;14.10;99.90;;;;;;5070986;28;20227;-63
2023/05/16 02:44:40;;;;;;;2.05;1.95;;;14.10;99.90;;;;;;5070895;28;20674;-62
2023/05/16 02:47:06;;;;;;;2.72;2.63;;;14.10;99.90;;;;;;5070888;28;20215;-62
2023/05/16 02:49:35;;;;;;;2.45;2.35;;;14.10;99.90;;;;;;5070635;28;20207;-63
2023/05/16 02:52:01;;;;;;;2.67;2.55;;;14.20;99.90;;;;;;5070822;28;20219;-65
2023/05/16 02:54:28;;;;;;;2.55;2.45;;;14.10;99.90;;;;;;5070440;28;20211;-62
2023/05/16 02:56:55;;;;;;;2.95;2.85;;;14.10;99.90;;;;;;5070768;28;20203;-62
2023/05/16 02:59:22;;;;;;;2.70;2.60;;;14.10;99.90;;;;;;5063381;28;20204;-62
2023/05/16 03:01:48;;;;;;;2.38;2.28;;;14.00;99.90;;;;;;5054076;28;20211;-63
2023/05/16 03:04:15;;;;;;;3.05;2.90;;;14.00;99.90;;;;;;5054159;28;20214;-63
2023/05/16 03:06:44;;;;;;;2.80;2.70;;;14.00;99.90;;;;;;5054431;28;20291;-63
2023/05/16 03:09:10;;;;;;;2.92;2.83;;;14.00;99.90;;;;;;5053150;28;20208;-63
2023/05/16 03:11:37;;;;;;;3.03;2.92;;;13.90;99.90;;;;;;5054128;28;20204;-64
2023/05/16 03:14:04;;;;;;;2.90;2.80;;;14.00;99.90;;;;;;5053804;28;20235;-64
2023/05/16 03:16:31;;;;;;;2.90;2.70;;;13.90;99.90;;;;;;5054121;28;20204;-62
2023/05/16 03:18:58;;;;;;;2.90;2.80;;;13.90;99.90;;;;;;5054215;28;20998;-63
2023/05/16 03:21:25;;;;;;;3.08;2.90;;;13.90;99.90;;;;;;5053159;28;20200;-64
2023/05/16 03:23:53;;;;;;;2.87;2.77;;;13.90;99.90;;;;;;5053940;28;20266;-64
2023/05/16 03:26:21;;;;;;;3.70;3.50;;;13.90;99.90;;;;;;5054149;28;20231;-64
2023/05/16 03:28:48;;;;;;;3.53;3.33;;;13.90;99.90;;;;;;5053465;28;20584;-64
2023/05/16 03:31:15;;;;;;;3.58;3.38;;;13.90;99.90;;;;;;5053494;28;20214;-63
2023/05/16 03:33:42;;;;;;;3.22;3.10;;;13.90;99.90;;;;;;5053835;28;20228;-62
2023/05/16 03:36:09;;;;;;;3.65;3.45;;;13.90;99.90;;;;;;5054404;28;20768;-63
2023/05/16 03:38:36;;;;;;;3.85;3.65;;;13.90;99.90;;;;;;5053876;28;20208;-62
2023/05/16 03:41:05;;;;;;;4.05;3.85;;;13.90;99.90;;;;;;5052637;28;20208;-62
2023/05/16 03:43:31;;;;;;;3.67;3.50;;;13.90;99.90;;;;;;5053497;28;20231;-62
2023/05/16 03:46:00;;;;;;;3.80;3.60;;;13.90;99.90;;;;;;5053470;28;20214;-62
2023/05/16 03:48:27;;;;;;;3.83;3.63;;;13.90;99.90;;;;;;5054201;28;20224;-62
2023/05/16 03:50:54;;;;;;;3.65;3.45;;;13.80;99.90;;;;;;5052757;28;20210;-63
2023/05/16 03:53:21;;;;;;;3.88;3.67;;;13.80;99.90;;;;;;5053193;28;20224;-62
2023/05/16 03:55:48;;;;;;;3.90;3.70;;;13.80;99.90;;;;;;5053168;28;20679;-63
2023/05/16 03:58:16;;;;;;;4.20;4.00;;;13.80;99.90;;;;;;5053523;28;20200;-63
2023/05/16 04:00:44;;;;;;;4.32;4.13;;;13.80;99.90;;;;;;5072346;28;20203;-67
2023/05/16 04:03:11;;;;;;;3.78;3.58;;;13.80;99.90;;;;;;5074772;28;20219;-63
2023/05/16 04:05:38;;;;;;;4.22;4.03;;;13.80;99.90;;;;;;5073658;28;20207;-63
2023/05/16 04:08:05;;;;;;;4.30;4.10;;;13.70;99.90;;;;;;5073846;28;20220;-64
2023/05/16 04:10:32;;;;;;;4.50;4.30;;;13.70;99.90;;;;;;5068871;28;20217;-63
2023/05/16 04:12:59;;;;;;;4.40;4.20;;;13.70;99.90;;;;;;5069901;28;20231;-62
2023/05/16 04:15:27;;;;;;;5.00;4.70;;;13.80;99.90;;;;;;5071878;28;20206;-63
2023/05/16 04:17:54;;;;;;;4.95;4.75;;;13.70;99.90;;;;;;5073494;28;20207;-63
2023/05/16 04:20:20;;;;;;;5.43;5.13;;;13.80;99.90;;;;;;5074143;28;20203;-66
2023/05/16 04:22:47;;;;;;;5.43;5.13;;;13.70;99.90;;;;;;5053146;28;20224;-63
2023/05/16 04:25:15;;;;;;;5.05;4.82;;;13.80;99.90;;;;;;5052956;28;20630;-62
2023/05/16 04:27:41;;;;;;;4.45;4.25;;;13.80;99.90;;;;;;5053057;28;20712;-63
2023/05/16 04:30:10;;;;;;;5.45;5.15;;;13.80;99.90;;;;;;5051699;28;20204;-62
2023/05/16 04:32:38;;;;;;;5.00;4.80;;;13.80;99.90;;;;;;5052840;28;20263;-63
2023/05/16 04:35:07;;;;;;;5.85;5.55;;;13.70;99.90;;;;;;5057528;28;20191;-64
2023/05/16 04:37:35;;;;;;;5.70;5.40;;;13.70;99.90;;;;;;5077367;28;20206;-62
2023/05/16 04:40:02;;;;;;;6.22;5.93;;;13.70;99.90;;;;;;5080675;28;20208;-63
2023/05/16 04:42:29;;;;;;;5.63;5.32;;;13.60;99.90;;;;;;5052273;28;20227;-64
2023/05/16 04:44:57;;;;;;;5.93;5.63;;;13.70;99.90;;;;;;5052521;28;20648;-64
2023/05/16 04:47:23;;;;;;;6.00;5.68;;;13.60;99.90;;;;;;5052423;28;20286;-64
2023/05/16 04:49:52;;;;;;;7.35;6.85;;;13.60;99.90;;;;;;5051581;28;20212;-64
2023/05/16 04:52:19;;;;;;;6.40;6.07;;;13.50;99.90;;;;;;5063608;28;20690;-63
2023/05/16 04:54:46;;;;;;;6.97;6.57;;;13.50;99.90;;;;;;5071610;28;20203;-63
2023/05/16 04:57:12;;;;;;;7.28;6.85;;;13.40;99.90;;;;;;5072038;28;20203;-62
2023/05/16 04:59:39;;;;;;;7.78;7.38;;;13.40;99.90;;;;;;5051229;28;20219;-62
2023/05/16 05:02:06;;;;;;;7.57;7.18;;;13.30;99.90;;;;;;5052189;28;20212;-62
2023/05/16 05:04:33;;;;;;;7.40;7.00;;;13.40;99.90;;;;;;5052199;28;20208;-64
2023/05/16 05:07:01;;;;;;;7.20;6.80;;;13.30;99.90;;;;;;5052897;28;20200;-64
2023/05/16 05:09:28;;;;;;;7.88;7.38;;;13.30;99.90;;;;;;5069137;28;20629;-62
2023/05/16 05:11:55;;;;;;;7.32;6.88;;;13.30;99.90;;;;;;5071482;28;20290;-62
2023/05/16 05:14:22;;;;;;;6.80;6.40;;;13.30;99.90;;;;;;5071541;28;20214;-62
2023/05/16 05:16:48;;;;;;;7.10;6.70;;;13.20;99.90;;;;;;5065989;28;20203;-62
2023/05/16 05:19:15;;;;;;;7.20;6.80;;;13.30;99.90;;;;;;5065765;28;20195;-62
2023/05/16 05:21:42;;;;;;;7.00;6.60;;;13.20;99.90;;;;;;5068081;28;20604;-63
2023/05/16 05:24:10;;;;;;;7.05;6.65;;;13.20;99.90;;;;;;5063347;28;20228;-62
2023/05/16 05:26:37;;;;;;;7.60;7.20;;;13.20;99.90;;;;;;5071087;28;20199;-61
2023/05/16 05:29:04;;;;;;;6.97;6.57;;;13.20;99.90;;;;;;5065401;28;20223;-62
2023/05/16 05:31:32;;;;;;;7.63;7.22;;;13.10;99.90;;;;;;5070855;28;20213;-63
2023/05/16 05:33:59;;;;;;;7.45;6.97;;;13.10;99.90;;;;;;5070854;28;20300;-63
2023/05/16 05:36:26;;;;;;;7.78;7.30;;;13.10;99.90;;;;;;5070800;28;20199;-63
2023/05/16 05:38:53;;;;;;;8.05;7.57;;;13.00;99.90;;;;;;5071330;28;20204;-63
2023/05/16 05:41:21;;;;;;;7.90;7.28;;;13.10;99.90;;;;;;5062765;28;20236;-63
2023/05/16 05:43:48;;;;;;;7.70;7.20;;;13.10;99.90;;;;;;5070758;28;20219;-63
2023/05/16 05:46:15;;;;;;;7.25;6.85;;;13.20;99.90;;;;;;5069883;28;20662;-63
2023/05/16 05:48:42;;;;;;;7.30;6.90;;;13.20;99.90;;;;;;5071457;28;20227;-62
2023/05/16 05:51:09;;;;;;;8.13;7.57;;;13.20;99.90;;;;;;5069953;28;20308;-62
2023/05/16 05:53:36;;;;;;;7.57;7.07;;;13.20;99.90;;;;;;5071025;28;20229;-63
2023/05/16 05:56:03;;;;;;;7.83;7.43;;;13.20;99.90;;;;;;5070574;28;20209;-64
2023/05/16 05:58:31;;;;;;;7.55;7.13;;;13.20;99.90;;;;;;5071000;28;20213;-64
2023/05/16 06:00:58;;;;;;;6.90;6.50;;;13.20;99.90;;;;;;5070849;28;20207;-62
2023/05/16 06:03:25;;;;;;;7.15;6.65;;;13.20;99.90;;;;;;5071107;28;20234;-62
2023/05/16 06:05:52;;;;;;;6.37;5.97;;;13.20;99.90;;;;;;5071513;28;20221;-63
2023/05/16 06:08:18;;;;;;;6.55;6.15;;;13.30;99.90;;;;;;5071237;28;20223;-62
2023/05/16 06:10:45;;;;;;;6.68;6.28;;;13.20;99.90;;;;;;5069743;28;20210;-62
2023/05/16 06:13:12;;;;;;;5.90;5.60;;;13.20;99.90;;;;;;5068968;28;20231;-63
2023/05/16 06:15:40;;;;;;;5.97;5.68;;;13.30;99.90;;;;;;5070669;28;20225;-63
2023/05/16 06:18:07;;;;;;;6.35;5.97;;;13.30;99.90;;;;;;5071566;28;20199;-63
2023/05/16 06:20:34;;;;;;;6.20;5.70;;;13.20;99.90;;;;;;5071963;28;20206;-62
2023/05/16 06:23:01;;;;;;;6.00;5.70;;;13.20;99.90;;;;;;5071113;28;20231;-63
2023/05/16 06:25:29;;;;;;;6.07;5.78;;;13.10;99.90;;;;;;5071141;28;20218;-62
2023/05/16 06:27:56;;;;;;;5.68;5.38;;;13.10;99.90;;;;;;5070842;28;20223;-63
2023/05/16 06:30:22;;;;;;;5.57;5.28;;;13.20;99.90;;;;;;5070004;28;20670;-65
2023/05/16 06:32:51;;;;;;;5.85;5.55;;;13.20;99.90;;;;;;5071009;28;20318;-63
2023/05/16 06:35:18;;;;;;;6.47;6.07;;;13.30;99.90;;;;;;5074115;28;20205;-62
2023/05/16 06:37:44;;;;;;;5.68;5.38;;;13.30;99.90;;;;;;5074607;28;20207;-62
2023/05/16 06:40:12;;;;;;;6.07;5.68;;;13.40;99.90;;;;;;5073898;28;20207;-65
2023/05/16 06:42:39;;;;;;;5.80;5.50;;;13.40;99.90;;;;;;5074589;28;20233;-63
2023/05/16 06:45:07;;;;;;;6.30;5.78;;;13.40;99.90;;;;;;5074825;28;20274;-63
2023/05/16 06:47:34;;;;;;;5.88;5.57;;;13.40;99.90;;;;;;5074962;28;20210;-63
2023/05/16 06:50:02;;;;;;;5.60;5.30;;;13.40;99.90;;;;;;5073069;28;20233;-63
2023/05/16 06:52:29;;;;;;;6.00;5.70;;;13.40;99.90;;;;;;5074648;28;20227;-62
2023/05/16 06:54:56;;;;;;;6.07;5.68;;;13.40;99.90;;;;;;5074474;28;20669;-63
2023/05/16 06:57:23;;;;;;;6.57;6.25;;;13.40;99.90;;;;;;5074403;28;20211;-63
2023/05/16 06:59:49;;;;;;;6.25;5.85;;;13.30;99.90;;;;;;5073838;28;20298;-62
2023/05/16 07:02:16;;;;;;;6.18;5.80;;;13.30;99.90;;;;;;5073807;28;20306;-63
2023/05/16 07:04:43;;;;;;;6.35;5.95;;;13.30;99.90;;;;;;5074326;28;20209;-62
2023/05/16 07:07:12;;;;;;;6.07;5.72;;;13.30;99.90;;;;;;5074313;28;20207;-62
2023/05/16 07:09:39;;;;;;;5.90;5.60;;;13.30;99.90;;;;;;5073245;28;20254;-63
2023/05/16 07:12:06;;;;;;;6.10;5.75;;;13.30;99.90;;;;;;5074342;28;20207;-62
2023/05/16 07:14:33;;;;;;;5.72;5.32;;;13.30;99.90;;;;;;5073911;28;20215;-62
2023/05/16 07:17:00;;;;;;;5.55;5.25;;;13.20;99.90;;;;;;5074045;28;20207;-64
2023/05/16 07:19:26;;;;;;;6.32;5.93;;;13.10;99.90;;;;;;5073343;28;20203;-64
2023/05/16 07:21:53;;;;;;;6.20;5.80;;;13.20;99.90;;;;;;5073973;28;20219;-64
2023/05/16 07:24:22;;;;;;;6.10;5.70;;;13.20;99.90;;;;;;5074038;28;20237;-62
2023/05/16 07:26:48;;;;;;;5.72;5.43;;;13.20;99.90;;;;;;5073879;28;20217;-62
2023/05/16 07:29:15;;;;;;;5.78;5.47;;;13.10;99.90;;;;;;5072746;28;20229;-63
2023/05/16 07:31:42;;;;;;;5.65;5.35;;;13.10;99.90;;;;;;5073719;28;20203;-63
2023/05/16 07:34:09;;;;;;;6.20;5.80;;;13.10;99.90;;;;;;5073557;28;20230;-63
2023/05/16 07:36:36;;;;;;;5.90;5.60;;;13.10;99.90;;;;;;5073671;28;20213;-63
2023/05/16 07:39:03;;;;;;;5.80;5.50;;;13.10;99.90;;;;;;5073087;28;20207;-62
2023/05/16 07:41:31;;;;;;;5.20;4.90;;;13.10;99.90;;;;;;5073303;28;20221;-63
2023/05/16 07:43:58;;;;;;;5.38;5.07;;;13.10;99.90;;;;;;5073343;28;20227;-62
2023/05/16 07:46:25;;;;;;;5.15;4.85;;;13.10;99.90;;;;;;5073460;28;20253;-63
2023/05/16 07:48:52;;;;;;;5.55;5.25;;;13.10;99.90;;;;;;5073329;28;20758;-63
2023/05/16 07:51:19;;;;;;;4.78;4.53;;;13.10;99.90;;;;;;5072479;28;20207;-63
2023/05/16 07:53:46;;;;;;;5.13;4.82;;;13.10;99.90;;;;;;5062279;28;20223;-63
2023/05/16 07:56:12;;;;;;;6.00;5.70;;;13.10;99.90;;;;;;5053642;28;20621;-63
2023/05/16 07:58:41;;;;;;;5.07;4.78;;;13.10;99.90;;;;;;5053279;28;20210;-63
2023/05/16 08:01:08;;;;;;;5.22;4.93;;;13.10;99.90;;;;;;5052139;28;20207;-63
2023/05/16 08:03:36;;;;;;;4.60;4.40;;;13.20;99.90;;;;;;5053104;28;20640;-63
2023/05/16 08:06:02;;;;;;;4.93;4.63;;;13.20;99.90;;;;;;5052977;28;20211;-62
2023/05/16 08:08:29;;;;;;;4.72;4.43;;;13.20;99.90;;;;;;5053282;28;20220;-64
2023/05/16 08:10:57;;;;;;;4.60;4.30;;;13.20;99.90;;;;;;5052165;28;20214;-63
2023/05/16 08:13:23;;;;;;;4.40;4.10;;;13.20;99.90;;;;;;5052728;28;20231;-63
2023/05/16 08:15:51;;;;;;;4.30;3.90;;;13.40;99.90;;;;;;5052974;28;20212;-63
2023/05/16 08:18:18;;;;;;;3.95;3.75;;;13.20;99.90;;;;;;5052700;28;20667;-63
2023/05/16 08:20:45;;;;;;;4.10;3.85;;;13.30;99.90;;;;;;5051675;28;20299;-62
2023/05/16 08:23:12;;;;;;;3.75;3.55;;;13.20;99.90;;;;;;5052962;28;20324;-62
2023/05/16 08:25:39;;;;;;;3.53;3.33;;;13.20;99.90;;;;;;5054457;28;20242;-63
2023/05/16 08:28:06;;;;;;;3.50;3.30;;;13.20;99.90;;;;;;5061563;28;20207;-63
2023/05/16 08:30:33;;;;;;;3.70;3.50;;;13.10;99.90;;;;;;5055525;28;20706;-62
2023/05/16 08:33:03;;;;;;;3.28;3.08;;;13.10;99.90;;;;;;5052649;28;20224;-63
2023/05/16 08:35:30;;;;;;;3.13;3.00;;;13.10;99.90;;;;;;5052696;28;20219;-63
2023/05/16 08:37:57;;;;;;;2.70;2.60;;;13.10;99.90;;;;;;5052608;28;20218;-63
2023/05/16 08:40:26;;;;;;;2.92;2.83;;;13.10;99.90;;;;;;5052257;28;20212;-63
2023/05/16 08:42:53;;;;;;;2.80;2.70;;;13.20;99.90;;;;;;5052337;28;20220;-62
2023/05/16 08:45:20;;;;;;;2.55;2.45;;;13.40;99.90;;;;;;5052434;28;20207;-62
2023/05/16 08:47:50;;;;;;;2.85;2.65;;;13.50;99.90;;;;;;5052375;28;20597;-63
2023/05/16 08:50:18;;;;;;;2.40;2.30;;;13.60;99.90;;;;;;5051445;28;20282;-64
2023/05/16 08:52:51;;;;;;;2.60;2.50;;;13.60;99.90;;;;;;5052221;28;20228;-63
2023/05/16 08:55:20;;;;;;;2.30;2.20;;;13.40;99.90;;;;;;5052168;28;20250;-65
2023/05/16 08:57:49;;;;;;;2.47;2.38;;;13.50;99.90;;;;;;5051494;28;20218;-63
2023/05/16 09:00:18;;;;;;;2.13;2.03;;;13.60;99.90;;;;;;5051327;28;20609;-62
2023/05/16 09:02:45;;;;;;;1.98;1.88;;;13.70;99.90;;;;;;5051566;28;20224;-62
2023/05/16 09:05:14;;;;;;;1.73;1.70;;;13.70;99.90;;;;;;5052021;28;20235;-62
2023/05/16 09:07:43;;;;;;;1.73;1.63;;;13.70;99.90;;;;;;5051948;28;20228;-62
2023/05/16 09:10:10;;;;;;;1.80;1.70;;;13.60;99.90;;;;;;5050897;28;20220;-61
2023/05/16 09:12:37;;;;;;;1.65;1.55;;;13.70;99.90;;;;;;5051292;28;20238;-61
2023/05/16 09:15:06;;;;;;;1.58;1.55;;;13.80;99.90;;;;;;5051711;28;20592;-60
2023/05/16 09:17:37;;;;;;;1.60;1.50;;;13.80;99.90;;;;;;5052013;28;20200;-61
2023/05/16 09:20:09;;;;;;;1.25;1.25;;;13.80;99.90;;;;;;5051024;28;20204;-63
2023/05/16 09:22:36;;;;;;;1.20;1.20;;;13.90;99.90;;;;;;5051407;28;20238;-61
2023/05/16 09:25:05;;;;;;;1.27;1.27;;;13.80;99.90;;;;;;5051523;28;20634;-61
2023/05/16 09:27:32;;;;;;;1.10;1.10;;;13.80;99.90;;;;;;5051402;28;20696;-61
2023/05/16 09:29:59;;;;;;;0.90;0.90;;;13.80;99.90;;;;;;5050862;28;20223;-61
2023/05/16 09:32:26;;;;;;;1.35;1.08;;;13.80;99.90;;;;;;5051795;28;20317;-60
2023/05/16 09:34:57;;;;;;;0.90;0.90;;;13.80;99.90;;;;;;5051686;28;20212;-61
2023/05/16 09:37:24;;;;;;;1.00;1.00;;;13.80;99.90;;;;;;5052095;28;20214;-61
2023/05/16 09:39:53;;;;;;;0.73;0.73;;;13.80;99.90;;;;;;5051221;28;20219;-64
2023/05/16 09:42:22;;;;;;;0.85;0.85;;;13.80;99.90;;;;;;5051905;28;20220;-61
2023/05/16 09:44:51;;;;;;;0.90;0.90;;;13.80;99.90;;;;;;5051637;28;20315;-62
2023/05/16 09:47:18;;;;;;;0.68;0.68;;;13.70;99.90;;;;;;5051943;28;20210;-62
2023/05/16 09:49:45;;;;;;;0.90;0.90;;;13.60;99.90;;;;;;5051514;28;20242;-62
2023/05/16 09:52:12;;;;;;;1.35;0.73;;;13.70;99.90;;;;;;5052445;28;20232;-62
2023/05/16 09:54:40;;;;;;;0.60;0.60;;;13.70;99.90;;;;;;5071187;28;20199;-62
2023/05/16 09:57:07;;;;;;;0.80;0.80;;;13.80;99.90;;;;;;5073203;28;20210;-62
2023/05/16 09:59:37;;;;;;;0.80;0.80;;;13.80;99.90;;;;;;5071299;28;20203;-62
2023/05/16 10:02:07;;;;;;;0.70;0.70;;;13.70;99.90;;;;;;5072280;28;20574;-62
2023/05/16 10:04:34;;;;;;;0.70;0.70;;;13.60;99.90;;;;;;5071650;28;20200;-64
2023/05/16 10:07:04;;;;;;;0.70;0.70;;;13.60;99.90;;;;;;5071623;28;20235;-62
2023/05/16 10:09:33;;;;;;;0.70;0.70;;;13.60;99.90;;;;;;5072939;28;20269;-63
2023/05/16 10:12:03;;;;;;;0.80;0.80;;;13.60;99.90;;;;;;5075102;28;20203;-64
2023/05/16 10:14:33;;;;;;;0.50;0.50;;;13.60;99.90;;;;;;5075192;28;20612;-63
2023/05/16 10:17:04;;;;;;;0.52;0.52;;;13.60;99.90;;;;;;5074874;28;20199;-62
2023/05/16 10:19:32;;;;;;;0.60;0.60;;;13.70;99.90;;;;;;5074628;28;20214;-63
2023/05/16 10:22:04;;;;;;;0.70;0.70;;;13.50;99.90;;;;;;5075062;28;20209;-63
2023/05/16 10:24:38;;;;;;;0.70;0.70;;;13.60;99.90;;;;;;5075474;28;20678;-62
2023/05/16 10:27:06;;;;;;;0.70;0.70;;;13.60;99.90;;;;;;5075020;28;20222;-62
2023/05/16 10:29:33;;;;;;;0.60;0.60;;;13.70;99.90;;;;;;5074489;28;20227;-63
2023/05/16 10:32:03;;;;;;;0.60;0.60;;;13.70;99.90;;;;;;5075134;28;20213;-62
2023/05/16 10:34:30;;;;;;;0.90;0.90;;;13.60;99.90;;;;;;5074614;28;20207;-62
2023/05/16 10:36:57;;;;;;;0.60;0.60;;;13.60;99.90;;;;;;5074993;28;20211;-62
2023/05/16 10:39:24;;;;;;;0.50;0.50;;;13.60;99.90;;;;;;5074157;28;20209;-63
2023/05/16 10:41:52;;;;;;;1.08;1.08;;;13.70;99.90;;;;;;5074759;28;20203;-63
2023/05/16 10:44:18;;;;;;;0.85;0.85;;;13.70;99.90;;;;;;5074584;28;20203;-63
2023/05/16 10:46:47;;;;;;;0.80;0.80;;;13.60;99.90;;;;;;5074905;28;20207;-62
2023/05/16 10:49:22;;;;;;;1.38;1.27;;;13.60;99.90;;;;;;5073446;28;20207;-62
2023/05/16 10:52:06;;;;;;;1.00;1.00;;;13.50;99.90;;;;;;5074355;28;20228;-62
2023/05/16 10:54:38;;;;;;;1.20;1.20;;;13.40;99.90;;;;;;5074293;28;20210;-62
2023/05/16 10:57:14;;;;;;;1.00;1.00;;;13.30;99.90;;;;;;5074711;28;20207;-63
2023/05/16 10:59:45;;;;;;;0.90;0.90;;;13.30;99.90;;;;;;5074177;28;20210;-62
2023/05/16 11:02:31;;;;;;;0.80;0.80;;;13.30;99.90;;;;;;5074081;28;20203;-62
2023/05/16 11:05:01;;;;;;;0.80;0.80;;;13.40;99.90;;;;;;5074401;28;20202;-63
2023/05/16 11:07:31;;;;;;;0.90;0.90;;;13.40;99.90;;;;;;5074359;28;20210;-63
2023/05/16 11:10:07;;;;;;;1.92;0.93;;;13.50;99.90;;;;;;5073248;28;20226;-63
2023/05/16 11:12:38;;;;;;;0.80;0.80;;;13.40;99.90;;;;;;5074007;28;20265;-63
2023/05/16 11:15:19;;;;;;;0.85;0.85;;;13.30;99.90;;;;;;5074227;28;20265;-63
2023/05/16 11:17:46;;;;;;;0.75;0.75;;;13.30;99.90;;;;;;5074274;28;20253;-63
2023/05/16 11:20:27;;;;;;;0.70;0.70;;;13.30;99.90;;;;;;5072643;28;20257;-63
2023/05/16 11:23:24;;;;;;;0.82;0.82;;;13.20;99.90;;;;;;5074484;28;20592;-62
2023/05/16 11:25:54;;;;;;;0.70;0.70;;;13.30;99.90;;;;;;5072362;28;20983;-62
2023/05/16 11:28:22;;;;;;;0.82;0.82;;;13.40;99.90;;;;;;5074304;28;20207;-63
2023/05/16 11:30:50;;;;;;;0.60;0.60;;;13.30;99.90;;;;;;5073164;28;20775;-64
2023/05/16 11:33:18;;;;;;;1.02;1.02;;;13.40;99.90;;;;;;5073963;28;20258;-63
2023/05/16 11:36:00;;;;;;;0.80;0.80;;;13.50;99.90;;;;;;5074527;28;20686;-64
2023/05/16 11:38:29;;;;;;;0.70;0.70;;;13.50;99.90;;;;;;5074817;28;20218;-64
2023/05/16 11:41:02;;;;;;;0.60;0.60;;;13.60;99.90;;;;;;5073515;28;20203;-63
2023/05/16 11:43:29;;;;;;;0.70;0.70;;;13.60;99.90;;;;;;5073918;28;20234;-62
2023/05/16 11:45:57;;;;;;;0.60;0.60;;;13.60;99.90;;;;;;5073566;28;20207;-63
2023/05/16 11:48:24;;;;;;;0.65;0.65;;;13.50;99.90;;;;;;5073170;28;20234;-64
2023/05/16 11:50:53;;;;;;;0.70;0.70;;;13.50;99.90;;;;;;5073482;28;20264;-63
2023/05/16 11:53:21;;;;;;;0.57;0.57;;;13.50;99.90;;;;;;5073234;28;20630;-63
2023/05/16 11:55:51;;;;;;;0.60;0.60;;;13.40;99.90;;;;;;5073605;28;20207;-63
2023/05/16 11:58:18;;;;;;;0.77;0.77;;;13.40;99.90;;;;;;5073624;28;20214;-63
2023/05/16 12:00:49;;;;;;;0.50;0.50;;;13.40;99.90;;;;;;5072590;28;20195;-62
2023/05/16 12:03:16;;;;;;;0.40;0.40;;;13.40;99.90;;;;;;5072730;28;20224;-63
2023/05/16 12:05:53;;;;;;;0.55;0.55;;;13.40;99.90;;;;;;5072968;28;20207;-63
2023/05/16 12:08:21;;;;;;;0.88;0.88;;;13.40;99.90;;;;;;5073325;28;20211;-63
2023/05/16 12:10:50;;;;;;;0.40;0.40;;;13.40;99.90;;;;;;5072101;28;20223;-63
2023/05/16 12:13:17;;;;;;;0.60;0.60;;;13.40;99.90;;;;;;5072516;28;20293;-62
2023/05/16 12:15:45;;;;;;;0.63;0.63;;;13.30;99.90;;;;;;5072665;28;20203;-62
2023/05/16 12:18:12;;;;;;;0.75;0.75;;;13.30;99.90;;;;;;5072838;28;20207;-62
2023/05/16 12:20:39;;;;;;;0.70;0.70;;;13.20;99.90;;;;;;5072141;28;20682;-62
2023/05/16 12:23:10;;;;;;;0.70;0.70;;;13.20;99.90;;;;;;5072292;28;20278;-64
2023/05/16 12:25:40;;;;;;;0.80;0.80;;;13.10;99.90;;;;;;5072732;28;20211;-64
2023/05/16 12:28:07;;;;;;;0.65;0.65;;;13.20;99.90;;;;;;5072468;28;20210;-63
2023/05/16 12:30:34;;;;;;;0.73;0.73;;;13.10;99.90;;;;;;5071457;28;20220;-62
2023/05/16 12:33:02;;;;;;;0.68;0.68;;;13.00;99.90;;;;;;5071657;28;20226;-62
2023/05/16 12:35:31;;;;;;;0.60;0.60;;;13.10;99.90;;;;;;5072874;28;20207;-62
2023/05/16 12:37:58;;;;;;;0.63;0.63;;;13.20;99.90;;;;;;5072749;28;20340;-64
2023/05/16 12:40:28;;;;;;;0.70;0.70;;;13.10;99.90;;;;;;5071661;28;20227;-64
2023/05/16 12:42:55;;;;;;;0.60;0.60;;;13.20;99.90;;;;;;5072157;28;20227;-64
2023/05/16 12:45:23;;;;;;;0.55;0.55;;;13.20;99.90;;;;;;5072491;28;20206;-64
2023/05/16 12:47:50;;;;;;;0.60;0.60;;;13.30;99.90;;;;;;5072281;28;20207;-63
2023/05/16 12:50:17;;;;;;;0.80;0.80;;;13.30;99.90;;;;;;5071719;28;20254;-63
2023/05/16 12:52:49;;;;;;;1.05;0.90;;;13.30;99.90;;;;;;5072021;28;20262;-63